DLH61H LDRI-EDDF
Flight info
| Callsign | DLH61H |
|---|---|
| Flight time | 1h 13m |
| Altitude | 24000 |
| Route | CRE P151 ALIVO/N0445F380 DCT BERTA DCT KFT DCT SIMBA DCT AKINI T161 DEBHI DEBHI1B |
| Aircraft | A320/M-SDE3FGHIRWY/LB1 |
Departure
| Time | 2026-04-19 04:40 |
|---|---|
| Airport | Rijeka Airport (LDRI) |
Arrival
| Time | 2026-04-19 05:53 |
|---|---|
| Airport | Frankfurt Main Airport (EDDF) |
| Time | Latitude | Longitude | Altitude | Speed | Heading |
|---|---|---|---|---|---|
| 2026-04-19 04:28 | 45.21957 | 14.57103 | 266 ft | 0 kts | 105° |
| 2026-04-19 04:35 | 45.21946 | 14.57117 | 266 ft | 5 kts | 152° |
| 2026-04-19 04:36 | 45.21915 | 14.57105 | 265 ft | 4 kts | 198° |
| 2026-04-19 04:36 | 45.21887 | 14.57110 | 265 ft | 4 kts | 162° |
| 2026-04-19 04:36 | 45.21820 | 14.57170 | 265 ft | 11 kts | 141° |
| 2026-04-19 04:36 | 45.21760 | 14.57206 | 264 ft | 9 kts | 174° |
| 2026-04-19 04:37 | 45.21695 | 14.57204 | 264 ft | 12 kts | 183° |
| 2026-04-19 04:37 | 45.21613 | 14.57197 | 263 ft | 12 kts | 183° |
| 2026-04-19 04:37 | 45.21509 | 14.57243 | 263 ft | 20 kts | 143° |
| 2026-04-19 04:37 | 45.21388 | 14.57371 | 260 ft | 23 kts | 144° |
| 2026-04-19 04:38 | 45.21249 | 14.57510 | 258 ft | 26 kts | 146° |
| 2026-04-19 04:38 | 45.21103 | 14.57677 | 256 ft | 28 kts | 141° |
| 2026-04-19 04:38 | 45.20941 | 14.57841 | 257 ft | 29 kts | 146° |
| 2026-04-19 04:38 | 45.20803 | 14.57993 | 256 ft | 14 kts | 139° |
| 2026-04-19 04:39 | 45.20761 | 14.57965 | 256 ft | 5 kts | 293° |
| 2026-04-19 04:39 | 45.20786 | 14.57958 | 256 ft | 3 kts | 20° |
| 2026-04-19 04:39 | 45.20817 | 14.57957 | 256 ft | 9 kts | 338° |
| 2026-04-19 04:39 | 45.20831 | 14.57944 | 256 ft | 0 kts | 322° |
| 2026-04-19 04:40 | 45.20874 | 14.57897 | 257 ft | 34 kts | 323° |
| 2026-04-19 04:40 | 45.21286 | 14.57471 | 259 ft | 108 kts | 324° |
| 2026-04-19 04:40 | 45.22054 | 14.56681 | 295 ft | 160 kts | 325° |
| 2026-04-19 04:40 | 45.22977 | 14.55748 | 885 ft | 165 kts | 317° |
| 2026-04-19 04:41 | 45.23745 | 14.54524 | 1604 ft | 168 kts | 309° |
| 2026-04-19 04:41 | 45.24497 | 14.53143 | 2094 ft | 187 kts | 308° |
| 2026-04-19 04:41 | 45.25320 | 14.51566 | 2434 ft | 212 kts | 308° |
| 2026-04-19 04:41 | 45.26249 | 14.49790 | 2861 ft | 237 kts | 307° |
| 2026-04-19 04:42 | 45.26871 | 14.47541 | 3465 ft | 257 kts | 272° |
| 2026-04-19 04:42 | 45.26416 | 14.45083 | 4317 ft | 265 kts | 236° |
| 2026-04-19 04:42 | 45.25016 | 14.43393 | 5216 ft | 270 kts | 201° |
| 2026-04-19 04:42 | 45.23177 | 14.42805 | 6131 ft | 274 kts | 184° |
| 2026-04-19 04:43 | 45.21255 | 14.42672 | 6987 ft | 281 kts | 179° |
| 2026-04-19 04:43 | 45.19295 | 14.43089 | 7660 ft | 290 kts | 156° |
| 2026-04-19 04:43 | 45.17601 | 14.44623 | 8486 ft | 291 kts | 130° |
| 2026-04-19 04:43 | 45.16528 | 14.47022 | 9344 ft | 289 kts | 105° |
| 2026-04-19 04:44 | 45.16279 | 14.49815 | 10184 ft | 286 kts | 79° |
| 2026-04-19 04:44 | 45.16857 | 14.52511 | 10746 ft | 294 kts | 56° |
| 2026-04-19 04:44 | 45.18269 | 14.54688 | 11034 ft | 311 kts | 31° |
| 2026-04-19 04:44 | 45.20317 | 14.55888 | 11379 ft | 328 kts | 15° |
| 2026-04-19 04:45 | 45.22532 | 14.56813 | 12056 ft | 335 kts | 18° |
| 2026-04-19 04:45 | 45.24727 | 14.58014 | 12824 ft | 340 kts | 20° |
| 2026-04-19 04:45 | 45.26935 | 14.59261 | 13598 ft | 344 kts | 20° |
| 2026-04-19 04:45 | 45.29173 | 14.60539 | 14308 ft | 348 kts | 20° |
| 2026-04-19 04:46 | 45.31433 | 14.61840 | 14993 ft | 352 kts | 20° |
| 2026-04-19 04:46 | 45.33717 | 14.63156 | 15683 ft | 356 kts | 20° |
| 2026-04-19 04:46 | 45.36024 | 14.64485 | 16358 ft | 360 kts | 20° |
| 2026-04-19 04:46 | 45.38352 | 14.65828 | 17021 ft | 363 kts | 20° |
| 2026-04-19 04:47 | 45.40708 | 14.67187 | 17674 ft | 367 kts | 20° |
| 2026-04-19 04:47 | 45.43088 | 14.68561 | 18329 ft | 371 kts | 20° |
| 2026-04-19 04:47 | 45.45491 | 14.69950 | 18881 ft | 374 kts | 20° |
| 2026-04-19 04:47 | 45.47914 | 14.71348 | 19438 ft | 377 kts | 20° |
| 2026-04-19 04:48 | 45.50375 | 14.72682 | 20006 ft | 379 kts | 15° |
| 2026-04-19 04:48 | 45.52960 | 14.73450 | 20583 ft | 380 kts | 5° |
| 2026-04-19 04:48 | 45.55602 | 14.73531 | 21152 ft | 381 kts | 355° |
| 2026-04-19 04:48 | 45.58246 | 14.73204 | 21709 ft | 383 kts | 354° |
| 2026-04-19 04:49 | 45.60908 | 14.72871 | 22258 ft | 385 kts | 354° |
| 2026-04-19 04:49 | 45.63586 | 14.72540 | 22814 ft | 387 kts | 354° |
| 2026-04-19 04:49 | 45.66278 | 14.72210 | 23342 ft | 390 kts | 354° |
| 2026-04-19 04:49 | 45.68992 | 14.71884 | 23840 ft | 392 kts | 354° |
| 2026-04-19 04:50 | 45.71719 | 14.71555 | 24284 ft | 394 kts | 354° |
| 2026-04-19 04:50 | 45.74458 | 14.71223 | 24715 ft | 396 kts | 354° |
| 2026-04-19 04:50 | 45.77214 | 14.70890 | 25136 ft | 398 kts | 354° |
| 2026-04-19 04:50 | 45.79982 | 14.70558 | 25551 ft | 400 kts | 354° |
| 2026-04-19 04:51 | 45.82764 | 14.70222 | 25964 ft | 402 kts | 354° |
| 2026-04-19 04:51 | 45.85560 | 14.69881 | 26378 ft | 404 kts | 354° |
| 2026-04-19 04:51 | 45.88369 | 14.69535 | 26788 ft | 406 kts | 354° |
| 2026-04-19 04:51 | 45.91192 | 14.69189 | 27203 ft | 408 kts | 354° |
| 2026-04-19 04:52 | 45.94028 | 14.68840 | 27593 ft | 410 kts | 354° |
| 2026-04-19 04:52 | 45.96876 | 14.68489 | 27973 ft | 412 kts | 354° |
| 2026-04-19 04:52 | 45.99743 | 14.68137 | 28342 ft | 414 kts | 354° |
| 2026-04-19 04:52 | 46.02619 | 14.67783 | 28703 ft | 416 kts | 354° |
| 2026-04-19 04:53 | 46.05505 | 14.67428 | 29059 ft | 418 kts | 354° |
| 2026-04-19 04:53 | 46.08409 | 14.67072 | 29404 ft | 420 kts | 354° |
| 2026-04-19 04:53 | 46.11330 | 14.66710 | 29743 ft | 422 kts | 354° |
| 2026-04-19 04:53 | 46.14257 | 14.66346 | 30081 ft | 424 kts | 354° |
| 2026-04-19 04:54 | 46.17191 | 14.65981 | 30458 ft | 423 kts | 354° |
| 2026-04-19 04:54 | 46.20120 | 14.65618 | 30861 ft | 422 kts | 354° |
| 2026-04-19 04:54 | 46.23042 | 14.65259 | 31258 ft | 420 kts | 354° |
| 2026-04-19 04:54 | 46.25947 | 14.64901 | 31666 ft | 419 kts | 354° |
| 2026-04-19 04:55 | 46.28846 | 14.64539 | 32066 ft | 417 kts | 354° |
| 2026-04-19 04:55 | 46.31740 | 14.64172 | 32461 ft | 416 kts | 355° |
| 2026-04-19 04:55 | 46.34622 | 14.63809 | 32850 ft | 415 kts | 355° |
| 2026-04-19 04:55 | 46.37493 | 14.63452 | 33245 ft | 414 kts | 355° |
| 2026-04-19 04:56 | 46.40358 | 14.63098 | 33666 ft | 412 kts | 355° |
| 2026-04-19 04:56 | 46.43210 | 14.62744 | 34094 ft | 411 kts | 355° |
| 2026-04-19 04:56 | 46.46027 | 14.62073 | 34426 ft | 411 kts | 346° |
| 2026-04-19 04:56 | 46.48772 | 14.60927 | 34770 ft | 410 kts | 345° |
| 2026-04-19 04:57 | 46.51506 | 14.59761 | 35074 ft | 409 kts | 345° |
| 2026-04-19 04:57 | 46.54234 | 14.58597 | 35376 ft | 409 kts | 345° |
| 2026-04-19 04:57 | 46.56964 | 14.57430 | 35682 ft | 408 kts | 345° |
| 2026-04-19 04:57 | 46.59642 | 14.56062 | 35984 ft | 409 kts | 337° |
| 2026-04-19 04:58 | 46.62141 | 14.54089 | 36274 ft | 410 kts | 330° |
| 2026-04-19 04:58 | 46.64556 | 14.51879 | 36551 ft | 410 kts | 330° |
| 2026-04-19 04:58 | 46.66965 | 14.49668 | 36824 ft | 409 kts | 330° |
| 2026-04-19 04:58 | 46.69371 | 14.47458 | 37098 ft | 409 kts | 330° |
| 2026-04-19 04:59 | 46.71774 | 14.45251 | 37363 ft | 408 kts | 330° |
| 2026-04-19 04:59 | 46.74173 | 14.43045 | 37629 ft | 407 kts | 330° |
| 2026-04-19 04:59 | 46.76569 | 14.40841 | 37902 ft | 407 kts | 330° |
| 2026-04-19 04:59 | 46.78967 | 14.38633 | 38105 ft | 407 kts | 330° |
| 2026-04-19 05:00 | 46.83744 | 14.34227 | 38144 ft | 406 kts | 330° |
| 2026-04-19 05:00 | 46.88523 | 14.29817 | 38150 ft | 406 kts | 330° |
| 2026-04-19 05:01 | 46.93299 | 14.25397 | 38149 ft | 406 kts | 330° |
| 2026-04-19 05:01 | 46.97265 | 14.21715 | 38151 ft | 406 kts | 330° |
| 2026-04-19 05:02 | 47.02036 | 14.17283 | 38147 ft | 406 kts | 330° |
| 2026-04-19 05:02 | 47.06846 | 14.12807 | 38142 ft | 407 kts | 330° |
| 2026-04-19 05:03 | 47.11587 | 14.08379 | 38139 ft | 406 kts | 330° |
| 2026-04-19 05:03 | 47.13960 | 14.06161 | 38264 ft | 406 kts | 330° |
| 2026-04-19 05:03 | 47.16408 | 14.03875 | 38104 ft | 409 kts | 329° |
| 2026-04-19 05:04 | 47.21224 | 13.99371 | 38137 ft | 407 kts | 330° |
| 2026-04-19 05:04 | 47.25998 | 13.94894 | 38137 ft | 407 kts | 329° |
| 2026-04-19 05:05 | 47.30765 | 13.90400 | 38130 ft | 407 kts | 329° |
| 2026-04-19 05:05 | 47.31800 | 13.89423 | 38131 ft | 407 kts | 329° |
| 2026-04-19 05:06 | 47.36179 | 13.85283 | 38122 ft | 407 kts | 329° |
| 2026-04-19 05:07 | 47.40954 | 13.80768 | 38117 ft | 408 kts | 329° |
| 2026-04-19 05:07 | 47.45730 | 13.76240 | 38112 ft | 408 kts | 329° |
| 2026-04-19 05:08 | 47.52911 | 13.69417 | 38116 ft | 409 kts | 329° |
| 2026-04-19 05:09 | 47.57701 | 13.64848 | 38119 ft | 410 kts | 329° |
| 2026-04-19 05:09 | 47.62493 | 13.60270 | 38122 ft | 410 kts | 328° |
| 2026-04-19 05:10 | 47.67290 | 13.55683 | 38119 ft | 410 kts | 328° |
| 2026-04-19 05:10 | 47.72086 | 13.51090 | 38118 ft | 410 kts | 328° |
| 2026-04-19 05:11 | 47.76880 | 13.46485 | 38107 ft | 411 kts | 328° |
| 2026-04-19 05:11 | 47.81681 | 13.41865 | 38104 ft | 411 kts | 328° |
| 2026-04-19 05:12 | 47.86477 | 13.37227 | 38098 ft | 411 kts | 328° |
| 2026-04-19 05:12 | 47.91278 | 13.32580 | 38103 ft | 412 kts | 328° |
| 2026-04-19 05:13 | 47.96046 | 13.27946 | 38100 ft | 412 kts | 327° |
| 2026-04-19 05:13 | 48.00850 | 13.23274 | 38099 ft | 412 kts | 327° |
| 2026-04-19 05:14 | 48.05691 | 13.18565 | 38095 ft | 413 kts | 327° |
| 2026-04-19 05:14 | 48.10468 | 13.13899 | 38100 ft | 413 kts | 327° |
| 2026-04-19 05:15 | 48.15285 | 13.09188 | 38096 ft | 414 kts | 327° |
| 2026-04-19 05:15 | 48.20100 | 13.04459 | 38100 ft | 414 kts | 327° |
| 2026-04-19 05:16 | 48.24556 | 12.99033 | 38092 ft | 415 kts | 313° |
| 2026-04-19 05:16 | 48.28381 | 12.92533 | 38083 ft | 415 kts | 312° |
| 2026-04-19 05:17 | 48.32215 | 12.86022 | 38080 ft | 416 kts | 312° |
| 2026-04-19 05:17 | 48.36051 | 12.79493 | 38084 ft | 417 kts | 312° |
| 2026-04-19 05:18 | 48.39895 | 12.72960 | 38084 ft | 417 kts | 312° |
| 2026-04-19 05:18 | 48.43737 | 12.66405 | 38085 ft | 418 kts | 311° |
| 2026-04-19 05:19 | 48.47578 | 12.59828 | 38075 ft | 418 kts | 311° |
| 2026-04-19 05:19 | 48.51417 | 12.53242 | 38081 ft | 418 kts | 311° |
| 2026-04-19 05:20 | 48.55251 | 12.46630 | 38070 ft | 419 kts | 311° |
| 2026-04-19 05:20 | 48.59089 | 12.40009 | 38075 ft | 419 kts | 311° |
| 2026-04-19 05:21 | 48.62927 | 12.33380 | 38073 ft | 419 kts | 311° |
| 2026-04-19 05:21 | 48.65484 | 12.28953 | 38070 ft | 420 kts | 311° |
| 2026-04-19 05:22 | 48.69319 | 12.22288 | 38066 ft | 420 kts | 310° |
| 2026-04-19 05:22 | 48.73055 | 12.15494 | 38069 ft | 420 kts | 303° |
| 2026-04-19 05:23 | 48.75441 | 12.07458 | 38063 ft | 421 kts | 284° |
| 2026-04-19 05:23 | 48.76452 | 11.98714 | 38060 ft | 422 kts | 280° |
| 2026-04-19 05:24 | 48.77394 | 11.89938 | 38060 ft | 422 kts | 280° |
| 2026-04-19 05:24 | 48.78334 | 11.81147 | 38061 ft | 422 kts | 280° |
| 2026-04-19 05:25 | 48.79273 | 11.72350 | 38058 ft | 422 kts | 280° |
| 2026-04-19 05:25 | 48.80201 | 11.63555 | 38066 ft | 423 kts | 279° |
| 2026-04-19 05:26 | 48.81118 | 11.54753 | 38067 ft | 423 kts | 279° |
| 2026-04-19 05:26 | 48.82023 | 11.45940 | 38071 ft | 423 kts | 279° |
| 2026-04-19 05:27 | 48.82930 | 11.37131 | 38069 ft | 423 kts | 279° |
| 2026-04-19 05:27 | 48.83900 | 11.28327 | 38074 ft | 423 kts | 285° |
| 2026-04-19 05:28 | 48.86296 | 11.20236 | 38073 ft | 423 kts | 304° |
| 2026-04-19 05:28 | 48.90349 | 11.13753 | 38079 ft | 425 kts | 316° |
| 2026-04-19 05:29 | 48.94725 | 11.07690 | 38080 ft | 426 kts | 315° |
| 2026-04-19 05:29 | 48.96912 | 11.04636 | 37932 ft | 427 kts | 315° |
| 2026-04-19 05:29 | 48.99090 | 11.01582 | 37667 ft | 426 kts | 315° |
| 2026-04-19 05:29 | 49.01239 | 10.98562 | 37407 ft | 426 kts | 315° |
| 2026-04-19 05:30 | 49.03415 | 10.95502 | 37138 ft | 426 kts | 315° |
| 2026-04-19 05:30 | 49.05597 | 10.92431 | 36573 ft | 428 kts | 315° |
| 2026-04-19 05:30 | 49.07787 | 10.89343 | 35747 ft | 430 kts | 315° |
| 2026-04-19 05:30 | 49.09997 | 10.86226 | 34860 ft | 435 kts | 314° |
| 2026-04-19 05:31 | 49.12228 | 10.83078 | 34006 ft | 438 kts | 314° |
| 2026-04-19 05:31 | 49.14475 | 10.79898 | 32904 ft | 443 kts | 314° |
| 2026-04-19 05:31 | 49.16742 | 10.76679 | 31865 ft | 447 kts | 314° |
| 2026-04-19 05:31 | 49.19027 | 10.73431 | 30805 ft | 451 kts | 314° |
| 2026-04-19 05:32 | 49.21310 | 10.70107 | 29649 ft | 455 kts | 313° |
| 2026-04-19 05:32 | 49.23544 | 10.66679 | 28446 ft | 456 kts | 311° |
| 2026-04-19 05:32 | 49.25730 | 10.63204 | 27735 ft | 449 kts | 311° |
| 2026-04-19 05:32 | 49.27867 | 10.59755 | 26958 ft | 443 kts | 310° |
| 2026-04-19 05:33 | 49.29973 | 10.56351 | 26202 ft | 437 kts | 310° |
| 2026-04-19 05:33 | 49.32058 | 10.52997 | 25462 ft | 432 kts | 311° |
| 2026-04-19 05:33 | 49.34128 | 10.49694 | 24750 ft | 427 kts | 311° |
| 2026-04-19 05:33 | 49.36134 | 10.46368 | 24036 ft | 422 kts | 306° |
| 2026-04-19 05:34 | 49.37829 | 10.42767 | 23585 ft | 411 kts | 302° |
| 2026-04-19 05:34 | 49.39461 | 10.39190 | 23130 ft | 406 kts | 302° |
| 2026-04-19 05:34 | 49.41082 | 10.35660 | 22733 ft | 403 kts | 302° |
| 2026-04-19 05:34 | 49.42694 | 10.32150 | 22322 ft | 401 kts | 302° |
| 2026-04-19 05:35 | 49.44291 | 10.28661 | 21913 ft | 398 kts | 302° |
| 2026-04-19 05:35 | 49.45879 | 10.25178 | 21511 ft | 396 kts | 302° |
| 2026-04-19 05:35 | 49.47449 | 10.21718 | 21116 ft | 394 kts | 302° |
| 2026-04-19 05:35 | 49.49009 | 10.18268 | 20718 ft | 392 kts | 302° |
| 2026-04-19 05:36 | 49.50559 | 10.14839 | 20316 ft | 390 kts | 302° |
| 2026-04-19 05:36 | 49.52104 | 10.11419 | 19931 ft | 388 kts | 302° |
| 2026-04-19 05:36 | 49.53641 | 10.08020 | 19534 ft | 386 kts | 302° |
| 2026-04-19 05:36 | 49.55170 | 10.04636 | 19138 ft | 384 kts | 302° |
| 2026-04-19 05:37 | 49.56689 | 10.01264 | 18755 ft | 382 kts | 302° |
| 2026-04-19 05:37 | 49.58197 | 9.97906 | 18371 ft | 381 kts | 302° |
| 2026-04-19 05:37 | 49.59702 | 9.94554 | 17945 ft | 379 kts | 302° |
| 2026-04-19 05:37 | 49.61195 | 9.91225 | 17563 ft | 377 kts | 302° |
| 2026-04-19 05:38 | 49.62684 | 9.87911 | 17181 ft | 375 kts | 302° |
| 2026-04-19 05:38 | 49.64165 | 9.84613 | 16805 ft | 373 kts | 302° |
| 2026-04-19 05:38 | 49.65635 | 9.81333 | 16427 ft | 371 kts | 302° |
| 2026-04-19 05:38 | 49.67096 | 9.78064 | 16029 ft | 369 kts | 302° |
| 2026-04-19 05:39 | 49.68546 | 9.74809 | 15670 ft | 367 kts | 302° |
| 2026-04-19 05:39 | 49.69969 | 9.71609 | 15309 ft | 365 kts | 302° |
| 2026-04-19 05:39 | 49.71419 | 9.68347 | 14950 ft | 361 kts | 302° |
| 2026-04-19 05:39 | 49.72816 | 9.65212 | 14818 ft | 347 kts | 302° |
| 2026-04-19 05:40 | 49.73710 | 9.63205 | 14736 ft | 338 kts | 302° |
| 2026-04-19 05:40 | 49.75013 | 9.60284 | 14610 ft | 319 kts | 302° |
| 2026-04-19 05:40 | 49.76233 | 9.57546 | 14345 ft | 302 kts | 302° |
| 2026-04-19 05:40 | 49.77403 | 9.54903 | 13810 ft | 295 kts | 301° |
| 2026-04-19 05:41 | 49.78554 | 9.52289 | 13146 ft | 293 kts | 301° |
| 2026-04-19 05:41 | 49.79697 | 9.49692 | 12831 ft | 290 kts | 301° |
| 2026-04-19 05:41 | 49.80829 | 9.47125 | 12494 ft | 287 kts | 301° |
| 2026-04-19 05:41 | 49.81949 | 9.44584 | 12192 ft | 284 kts | 301° |
| 2026-04-19 05:42 | 49.83055 | 9.42063 | 11908 ft | 282 kts | 301° |
| 2026-04-19 05:42 | 49.84152 | 9.39558 | 11623 ft | 280 kts | 301° |
| 2026-04-19 05:42 | 49.85245 | 9.37066 | 11345 ft | 279 kts | 301° |
| 2026-04-19 05:42 | 49.86220 | 9.34495 | 11050 ft | 275 kts | 291° |
| 2026-04-19 05:43 | 49.86836 | 9.31710 | 10756 ft | 272 kts | 284° |
| 2026-04-19 05:43 | 49.87367 | 9.28901 | 10460 ft | 271 kts | 284° |
| 2026-04-19 05:43 | 49.87901 | 9.26104 | 10172 ft | 270 kts | 284° |
| 2026-04-19 05:43 | 49.88434 | 9.23323 | 9857 ft | 268 kts | 284° |
| 2026-04-19 05:44 | 49.88964 | 9.20556 | 9554 ft | 267 kts | 284° |
| 2026-04-19 05:44 | 49.89491 | 9.17800 | 9255 ft | 266 kts | 284° |
| 2026-04-19 05:44 | 49.90014 | 9.15051 | 8968 ft | 265 kts | 284° |
| 2026-04-19 05:44 | 49.90532 | 9.12315 | 8680 ft | 263 kts | 284° |
| 2026-04-19 05:45 | 49.91048 | 9.09605 | 8422 ft | 261 kts | 284° |
| 2026-04-19 05:45 | 49.91524 | 9.07095 | 8131 ft | 257 kts | 283° |
| 2026-04-19 05:45 | 49.92011 | 9.04518 | 7855 ft | 255 kts | 283° |
| 2026-04-19 05:45 | 49.92508 | 9.01882 | 7573 ft | 254 kts | 283° |
| 2026-04-19 05:46 | 49.93003 | 8.99252 | 7265 ft | 253 kts | 284° |
| 2026-04-19 05:46 | 49.93497 | 8.96627 | 6976 ft | 253 kts | 284° |
| 2026-04-19 05:46 | 49.94182 | 8.94115 | 6685 ft | 256 kts | 301° |
| 2026-04-19 05:46 | 49.95488 | 8.92219 | 6371 ft | 263 kts | 326° |
| 2026-04-19 05:47 | 49.97244 | 8.91370 | 6044 ft | 271 kts | 352° |
| 2026-04-19 05:47 | 49.99134 | 8.91409 | 5704 ft | 271 kts | 355° |
| 2026-04-19 05:47 | 50.01008 | 8.91354 | 5374 ft | 268 kts | 354° |
| 2026-04-19 05:47 | 50.02864 | 8.91269 | 5050 ft | 266 kts | 354° |
| 2026-04-19 05:48 | 50.04686 | 8.91046 | 4715 ft | 257 kts | 344° |
| 2026-04-19 05:48 | 50.06340 | 8.90107 | 4240 ft | 252 kts | 327° |
| 2026-04-19 05:48 | 50.07653 | 8.88510 | 4061 ft | 233 kts | 311° |
| 2026-04-19 05:48 | 50.08561 | 8.86551 | 3920 ft | 210 kts | 297° |
| 2026-04-19 05:49 | 50.09058 | 8.84549 | 3766 ft | 195 kts | 285° |
| 2026-04-19 05:49 | 50.09235 | 8.82491 | 3570 ft | 189 kts | 274° |
| 2026-04-19 05:49 | 50.09111 | 8.80470 | 3349 ft | 187 kts | 262° |
| 2026-04-19 05:49 | 50.08722 | 8.78571 | 3134 ft | 180 kts | 257° |
| 2026-04-19 05:50 | 50.08297 | 8.76776 | 2876 ft | 173 kts | 256° |
| 2026-04-19 05:50 | 50.07887 | 8.75034 | 2643 ft | 169 kts | 257° |
| 2026-04-19 05:50 | 50.07493 | 8.73377 | 2425 ft | 157 kts | 258° |
| 2026-04-19 05:50 | 50.07128 | 8.71835 | 2209 ft | 147 kts | 259° |
| 2026-04-19 05:51 | 50.06783 | 8.70378 | 2017 ft | 140 kts | 260° |
| 2026-04-19 05:51 | 50.06452 | 8.68974 | 1830 ft | 137 kts | 259° |
| 2026-04-19 05:51 | 50.06126 | 8.67597 | 1642 ft | 135 kts | 258° |
| 2026-04-19 05:51 | 50.05801 | 8.66224 | 1455 ft | 135 kts | 260° |
| 2026-04-19 05:52 | 50.05473 | 8.64837 | 1248 ft | 139 kts | 257° |
| 2026-04-19 05:52 | 50.05136 | 8.63417 | 1069 ft | 139 kts | 258° |
| 2026-04-19 05:52 | 50.04798 | 8.61989 | 856 ft | 144 kts | 256° |
| 2026-04-19 05:52 | 50.04460 | 8.60486 | 667 ft | 148 kts | 255° |
| 2026-04-19 05:53 | 50.04101 | 8.59012 | 452 ft | 143 kts | 253° |
| 2026-04-19 05:53 | 50.03769 | 8.57642 | 351 ft | 117 kts | 249° |
| 2026-04-19 05:53 | 50.03583 | 8.56864 | 356 ft | 53 kts | 250° |
| 2026-04-19 05:53 | 50.03469 | 8.56376 | 353 ft | 43 kts | 251° |
| 2026-04-19 05:54 | 50.03439 | 8.56016 | 348 ft | 29 kts | 275° |
| 2026-04-19 05:54 | 50.03464 | 8.55793 | 349 ft | 19 kts | 281° |
| 2026-04-19 05:54 | 50.03492 | 8.55584 | 353 ft | 21 kts | 280° |
| 2026-04-19 05:54 | 50.03469 | 8.55375 | 348 ft | 19 kts | 248° |
| 2026-04-19 05:55 | 50.03424 | 8.55193 | 345 ft | 18 kts | 250° |
| 2026-04-19 05:55 | 50.03393 | 8.55015 | 349 ft | 16 kts | 270° |
| 2026-04-19 05:55 | 50.03440 | 8.54861 | 349 ft | 16 kts | 323° |
| 2026-04-19 05:55 | 50.03546 | 8.54792 | 346 ft | 17 kts | 339° |
| 2026-04-19 05:56 | 50.03662 | 8.54725 | 349 ft | 18 kts | 341° |
| 2026-04-19 05:56 | 50.03773 | 8.54797 | 351 ft | 24 kts | 61° |
| 2026-04-19 05:56 | 50.03845 | 8.55101 | 350 ft | 31 kts | 68° |
| 2026-04-19 05:56 | 50.03921 | 8.55407 | 346 ft | 30 kts | 69° |
| 2026-04-19 05:57 | 50.03991 | 8.55701 | 345 ft | 28 kts | 70° |
| 2026-04-19 05:57 | 50.04055 | 8.55981 | 349 ft | 27 kts | 70° |
| 2026-04-19 05:57 | 50.04122 | 8.56244 | 351 ft | 25 kts | 58° |
| 2026-04-19 05:57 | 50.04243 | 8.56240 | 350 ft | 18 kts | 337° |
| 2026-04-19 05:58 | 50.04299 | 8.56102 | 350 ft | 15 kts | 309° |
| 2026-04-19 05:58 | 50.04421 | 8.56044 | 350 ft | 16 kts | 21° |
| 2026-04-19 05:58 | 50.04468 | 8.55996 | 350 ft | 16 kts | 326° |
| 2026-04-19 05:58 | 50.04560 | 8.56066 | 350 ft | 18 kts | 66° |
| 2026-04-19 05:59 | 50.04615 | 8.56200 | 345 ft | 10 kts | 9° |
| 2026-04-19 05:59 | 50.04689 | 8.56164 | 350 ft | 9 kts | 339° |
| 2026-04-19 05:59 | 50.04698 | 8.56159 | 351 ft | 0 kts | 340° |